Terminal Aerodrome Forecast
Issued by NWS Newport/Morehead City, NC

Home | Current Version | Previous Version | Text Only | Print | Product List | Glossary Off
Versions: 1 2 3 4 5 6 7 8 9 10 11 12 13 14 15 16 17

554
FTUS42 KMHX 111120
TAFEWN
TAF
KEWN 111120Z 1112/1212 29008KT P6SM SKC
     FM111500 29011G18KT P6SM SKC
     FM112200 29004KT P6SM SKC
     FM121100 04004KT P6SM BKN100=

USA.gov is the U.S. government's official web portal to all federal, state and local government web resources and services.